Last 24 Hours

Aguanga Barbara Trail

10 Minute Data | America/Los_Angeles
as of 10/14/19 12:16 PM PDT
Date & Time Temp (°F) Dew Pt (°F) RH (%) Wind Spd (mph) Wind Dir (°) Wind Gust (mph) Wind Gst Dir (°) Daily Max Temp (°F) Daily Min Temp (°F)
10/14/19 - 1210 61.7 39.3 43 6.1 W | 266 11.8 W | 271 62.4 41.3
10/14/19 - 1200 61.8 35.1 37 7.2 W | 273 12.5 W | 266 62.4 41.3
10/14/19 - 1150 61.6 33.7 35 6.5 W | 260 10.3 WSW | 253 62.4 41.3
10/14/19 - 1140 60.7 34.9 38 6.0 WSW | 250 10.3 WSW | 242 61.5 41.3
10/14/19 - 1130 60.6 36.7 41 5.0 W | 270 9.6 WSW | 247 61.5 41.3
10/14/19 - 1120 60.8 35.4 39 4.4 WSW | 246 8.8 W | 262 61.4 41.3
10/14/19 - 1110 59.9 35.4 40 3.3 SW | 233 6.8 SW | 215 60.4 41.3
10/14/19 - 1100 59.1 36.9 44 4.2 WSW | 251 8.1 WSW | 251 59.6 41.3
10/14/19 - 1050 58.7 37.7 46 4.3 W | 267 7.7 W | 270 59.3 41.3
10/14/19 - 1040 58.2 37.9 47 5.3 WSW | 257 7.9 WSW | 246 59.0 41.3
10/14/19 - 1030 57.8 39.3 50 5.3 W | 264 8.6 W | 268 58.6 41.3
10/14/19 - 1020 57.4 39.6 51 5.2 WSW | 255 7.5 WSW | 247 58.3 41.3
10/14/19 - 1010 57.6 38.8 49 5.2 WSW | 257 8.3 WSW | 255 58.3 41.3
10/14/19 - 1000 57.8 37.7 47 5.0 WSW | 252 7.5 W | 262 58.3 41.3
10/14/19 - 0950 57.7 36.2 44 4.4 WSW | 240 7.0 SW | 234 58.3 41.3
10/14/19 - 0940 57.6 36.8 46 3.9 WSW | 254 6.4 WSW | 252 58.0 41.3
10/14/19 - 0930 57.1 37.4 48 3.6 WSW | 238 6.6 WSW | 240 57.9 41.3
10/14/19 - 0920 57.4 36.4 45 3.4 SW | 234 5.7 SW | 216 57.9 41.3
10/14/19 - 0910 57.0 36.0 45 1.9 NW | 314 4.2 NW | 316 57.9 41.3
10/14/19 - 0900 57.3 36.9 46 1.0 NNW | 339 3.7 NW | 314 57.9 41.3
10/14/19 - 0850 55.9 38.4 52 3.2 NE | 48 5.9 NNE | 26 56.5 41.3
10/14/19 - 0840 54.0 40.0 59 5.4 ENE | 57 8.1 NE | 54 55.0 41.3
10/14/19 - 0830 53.0 40.1 62 6.0 NE | 51 7.9 NE | 45 53.6 41.3
10/14/19 - 0820 51.6 40.0 64 5.7 NE | 52 9.0 NE | 53 52.7 41.3
10/14/19 - 0810 49.8 39.2 67 6.7 NE | 53 9.4 NE | 53 51.7 41.3
10/14/19 - 0800 48.4 37.8 67 7.6 NE | 49 10.3 NE | 50 51.7 41.3
10/14/19 - 0750 46.3 37.6 71 6.6 NE | 52 9.4 NE | 43 51.7 41.3
10/14/19 - 0740 44.1 37.2 76 6.2 NE | 56 7.7 ENE | 58 51.7 41.3
10/14/19 - 0730 41.7 35.6 79 6.1 NE | 53 7.5 NE | 56 51.7 41.3
10/14/19 - 0720 43.0 36.3 77 5.9 NE | 54 6.6 NE | 56 51.7 41.9
10/14/19 - 0710 43.3 36.4 76 5.7 ENE | 57 6.4 ENE | 59 51.7 42.3
10/14/19 - 0700 45.1 36.9 73 5.0 ENE | 57 5.7 NE | 55 51.7 42.3
10/14/19 - 0650 45.5 37.2 73 5.0 ENE | 64 5.9 ENE | 62 51.7 42.3
10/14/19 - 0640 43.7 37.5 79 5.2 ENE | 63 5.9 ENE | 61 51.7 42.3
10/14/19 - 0630 43.3 37.5 80 5.0 NE | 56 6.1 ENE | 59 51.7 42.3
10/14/19 - 0620 44.5 38.9 81 4.5 ENE | 65 5.7 ENE | 71 51.7 43.2
10/14/19 - 0610 44.0 38.7 81 4.6 ENE | 76 5.7 ENE | 70 51.7 43.2
10/14/19 - 0600 44.8 39.1 80 3.9 E | 84 5.0 E | 80 51.7 43.2
10/14/19 - 0550 46.1 39.7 78 3.0 E | 96 4.4 E | 89 51.7 43.2
10/14/19 - 0540 46.7 39.5 76 2.5 E | 88 4.2 E | 94 51.7 43.2
10/14/19 - 0530 46.6 38.0 72 3.6 ENE | 59 4.6 NE | 48 51.7 43.2
10/14/19 - 0520 47.2 39.2 73 3.9 NE | 47 4.6 NE | 50 51.7 43.2
10/14/19 - 0510 47.1 40.1 76 4.2 NE | 54 5.5 NE | 53 51.7 43.2
10/14/19 - 0500 45.1 39.1 79 5.4 NE | 53 6.1 NE | 51 51.7 43.2
10/14/19 - 0450 44.0 38.2 80 4.9 NE | 51 6.1 NE | 54 51.7 43.2
10/14/19 - 0440 45.2 38.2 77 5.1 NE | 56 6.6 ENE | 59 51.7 43.3
10/14/19 - 0430 46.3 40.0 78 5.1 ENE | 66 6.1 ENE | 66 51.7 43.9
10/14/19 - 0420 44.4 38.0 78 5.7 ENE | 66 6.6 ENE | 67 51.7 43.9
10/14/19 - 0410 46.1 38.8 75 4.7 ENE | 69 5.7 ENE | 67 51.7 44.8
10/14/19 - 0400 48.0 40.3 75 3.4 ENE | 75 5.5 ENE | 69 51.7 44.8
10/14/19 - 0350 47.4 40.2 76 3.5 E | 81 4.6 E | 80 51.7 44.8
10/14/19 - 0340 47.0 40.5 78 4.3 ENE | 69 5.3 ENE | 71 51.7 44.8
10/14/19 - 0330 45.8 39.8 79 3.6 ENE | 70 5.0 ENE | 67 51.7 44.8
10/14/19 - 0320 46.9 40.5 78 2.8 ENE | 75 4.2 ENE | 64 51.7 44.8
10/14/19 - 0310 46.3 41.1 82 4.6 ENE | 71 5.9 ENE | 67 51.7 44.8
10/14/19 - 0300 45.7 41.8 86 3.9 ENE | 74 5.3 ENE | 69 51.7 44.8
10/14/19 - 0250 45.3 41.9 88 3.4 E | 97 5.3 E | 80 51.7 44.8
10/14/19 - 0240 46.1 42.0 85 2.3 SE | 138 3.7 E | 90 51.7 45.2
10/14/19 - 0230 47.9 41.4 78 2.2 SSE | 163 3.7 ENE | 72 51.7 46.9
10/14/19 - 0220 48.2 41.4 77 3.6 ENE | 70 4.8 ENE | 78 51.7 47.4
10/14/19 - 0210 48.6 41.7 77 3.4 NE | 54 4.4 NE | 55 51.7 47.6
10/14/19 - 0200 49.3 42.3 77 4.9 NE | 56 6.4 NE | 54 51.7 47.8
10/14/19 - 0150 48.8 41.4 76 5.2 NE | 55 5.9 NE | 54 51.7 47.8
10/14/19 - 0140 48.8 41.5 76 4.4 ENE | 59 5.7 NE | 51 51.7 47.8
10/14/19 - 0130 49.3 41.6 75 3.4 ENE | 58 4.2 ENE | 67 51.7 48.7
10/14/19 - 0120 50.1 42.3 74 4.1 ENE | 76 5.5 ENE | 72 51.7 49.4
10/14/19 - 0110 51.1 43.2 74 3.0 ENE | 57 4.4 ENE | 71 51.7 50.6
10/14/19 - 0100 50.8 42.9 74 0.7 ENE | 58 3.1 ENE | 62 76.8 48.2
10/14/19 - 0050 52.4 43.6 72 2.0 SE | 138 3.1 SE | 146 76.8 48.2
10/14/19 - 0040 50.9 42.7 73 3.3 ESE | 109 5.7 ENE | 73 76.8 48.2
10/14/19 - 0030 52.2 42.5 69 3.9 ENE | 78 5.9 ENE | 74 76.8 48.2
10/14/19 - 0020 52.5 43.1 70 2.6 ENE | 73 3.9 ENE | 64 76.8 48.2
10/14/19 - 0010 52.8 43.3 70 2.7 E | 98 5.7 ENE | 58 76.8 48.2
10/14/19 - 0000 49.6 41.6 74 3.9 ENE | 72 6.4 NE | 49 76.8 48.2
10/13/19 - 2350 49.2 40.1 71 4.1 NE | 52 5.9 NE | 43 76.8 48.2
10/13/19 - 2340 51.8 42.0 69 5.0 NE | 42 6.1 NE | 50 76.8 49.4
10/13/19 - 2330 50.3 40.6 69 5.4 NE | 50 7.0 NE | 40 76.8 49.4
10/13/19 - 2320 52.4 41.2 65 4.9 ENE | 65 6.1 ENE | 64 76.8 50.6
10/13/19 - 2310 52.1 40.8 65 5.2 ENE | 63 6.1 NE | 54 76.8 50.6
10/13/19 - 2300 53.6 41.1 62 2.8 ENE | 65 5.0 ENE | 74 76.8 50.6
10/13/19 - 2250 55.3 42.6 62 1.8 ESE | 104 4.2 E | 90 76.8 50.6
10/13/19 - 2240 53.0 42.2 67 4.4 ENE | 75 6.4 ENE | 69 76.8 50.6
10/13/19 - 2230 53.0 43.2 69 2.7 E | 86 4.4 ENE | 71 76.8 50.6
10/13/19 - 2220 52.7 44.2 73 2.9 E | 88 3.9 E | 86 76.8 50.6
10/13/19 - 2210 52.2 44.1 74 3.4 E | 87 4.8 ENE | 78 76.8 50.6
10/13/19 - 2200 53.1 42.2 66 1.8 SE | 133 4.4 E | 82 76.8 50.6
10/13/19 - 2150 54.6 41.7 62 0.6 WSW | 240 2.2 S | 183 76.8 50.6
10/13/19 - 2140 55.0 41.2 60 2.4 E | 84 4.2 ENE | 69 76.8 50.6
10/13/19 - 2130 55.7 41.2 58 3.0 ENE | 59 4.8 ENE | 64 76.8 50.6
10/13/19 - 2120 56.7 41.6 57 2.4 NE | 53 3.7 NE | 55 76.8 50.6
10/13/19 - 2110 57.2 41.9 56 1.0 NNE | 30 3.7 NE | 35 76.8 50.6
10/13/19 - 2100 57.4 42.6 57 1.5 ESE | 115 2.6 SSE | 156 76.8 50.6
10/13/19 - 2050 57.0 42.9 59 2.1 E | 88 2.4 E | 79 76.8 50.6
10/13/19 - 2040 56.5 43.1 61 1.5 ENE | 78 2.4 E | 79 76.8 50.6
10/13/19 - 2030 56.7 43.2 60 0.1 ENE | 69 1.3 E | 80 76.8 50.6
10/13/19 - 2020 57.3 43.4 60 0.2 E | 86 1.8 ENE | 63 76.8 50.6
10/13/19 - 2010 57.8 43.7 59 0.8 WSW | 251 2.2 W | 271 76.8 50.6
10/13/19 - 2000 58.1 44.1 60 0.9 SSE | 150 2.4 SE | 139 76.8 50.6
10/13/19 - 1950 58.2 44.4 60 0.6 SE | 129 1.5 SE | 129 76.8 50.6
10/13/19 - 1940 58.0 44.2 60 1.3 ENE | 77 2.2 ENE | 71 76.8 50.6
10/13/19 - 1930 58.8 44.4 59 0.6 NNW | 344 2.0 NW | 310 76.8 50.6
10/13/19 - 1920 59.0 44.4 58 1.5 NNW | 330 2.4 NW | 309 76.8 50.6
10/13/19 - 1910 59.3 44.3 57 2.4 NW | 323 5.7 NW | 316 76.8 50.6
10/13/19 - 1900 59.7 44.0 56 2.3 NW | 320 4.2 WNW | 296 76.8 50.6
10/13/19 - 1850 59.8 44.3 56 1.9 NW | 326 3.9 NW | 326 76.8 50.6
10/13/19 - 1840 60.2 44.6 56 2.0 NW | 311 3.5 NW | 312 76.8 50.6
10/13/19 - 1830 60.7 44.7 55 3.0 WNW | 302 4.6 WNW | 284 76.8 50.6
10/13/19 - 1820 61.5 46.2 57 3.9 W | 281 5.9 WSW | 256 76.8 50.6
10/13/19 - 1810 61.9 47.6 59 4.0 W | 267 5.7 W | 261 76.8 50.6
10/13/19 - 1800 62.4 48.0 59 4.5 W | 267 6.8 W | 270 76.8 50.6
10/13/19 - 1750 63.0 48.1 58 5.1 W | 266 7.5 W | 265 76.8 50.6
10/13/19 - 1740 63.5 47.8 57 6.4 W | 273 9.6 W | 272 76.8 50.6
10/13/19 - 1730 64.1 47.9 56 7.7 W | 271 11.4 W | 275 76.8 50.6
10/13/19 - 1720 65.0 47.3 53 8.0 W | 272 11.4 W | 266 76.8 50.6
10/13/19 - 1710 65.3 46.6 51 8.2 W | 275 11.4 WNW | 287 76.8 50.6
10/13/19 - 1700 66.0 46.4 49 9.7 W | 274 14.2 W | 275 76.8 50.6
10/13/19 - 1650 66.3 45.4 47 9.4 W | 278 13.8 W | 272 76.8 50.6
10/13/19 - 1640 66.5 45.2 46 10.5 W | 271 14.9 W | 276 76.8 50.6
10/13/19 - 1630 67.0 45.1 45 11.1 W | 272 15.3 W | 263 76.8 50.6
10/13/19 - 1620 67.6 45.1 44 10.9 W | 279 17.3 WNW | 289 76.8 50.6
10/13/19 - 1610 67.7 45.0 44 12.1 W | 274 16.7 WNW | 282 76.8 50.6
10/13/19 - 1600 68.4 43.8 41 11.8 WNW | 285 17.5 W | 265 76.8 50.6
10/13/19 - 1550 68.7 42.7 39 11.6 W | 279 17.5 WNW | 282 76.8 50.6
10/13/19 - 1540 69.7 41.4 36 12.1 WNW | 283 18.2 WNW | 283 76.8 50.6
10/13/19 - 1530 69.9 39.3 33 10.4 WNW | 283 15.6 WNW | 289 76.8 50.6
10/13/19 - 1520 69.7 38.8 32 11.8 WNW | 282 17.8 NW | 308 76.8 50.6
10/13/19 - 1510 70.1 38.4 31 12.0 W | 278 17.8 W | 279 76.8 50.6
10/13/19 - 1500 70.3 37.8 30 11.6 W | 278 18.2 WNW | 284 76.8 50.6
10/13/19 - 1450 70.2 37.1 30 9.1 W | 274 16.9 WSW | 243 76.8 50.6
10/13/19 - 1440 70.4 36.5 29 9.8 WNW | 283 14.5 WNW | 282 76.8 50.6
10/13/19 - 1430 70.3 35.7 28 10.3 WNW | 291 15.6 W | 281 76.8 50.6
10/13/19 - 1420 70.2 34.4 27 11.6 WNW | 290 16.7 WNW | 300 76.8 50.6
10/13/19 - 1410 70.6 33.4 25 10.5 W | 278 17.1 WNW | 287 76.8 50.6
10/13/19 - 1400 70.1 33.0 25 11.4 W | 270 16.7 W | 271 76.8 50.6
10/13/19 - 1350 70.2 33.2 25 11.0 WNW | 283 17.5 WNW | 285 76.8 50.6
10/13/19 - 1340 70.2 33.4 26 10.7 W | 275 17.1 W | 281 76.8 50.6
10/13/19 - 1330 70.1 32.8 25 12.4 W | 274 17.1 W | 271 76.8 50.6
10/13/19 - 1320 70.5 32.2 24 13.0 W | 277 18.2 WNW | 288 76.8 50.6
10/13/19 - 1310 71.2 31.0 23 9.9 W | 266 16.9 WNW | 284 76.8 50.6
10/13/19 - 1300 71.0 30.9 23 10.8 W | 264 16.9 WSW | 255 76.8 50.6
10/13/19 - 1250 70.7 30.7 23 11.1 W | 263 18.4 W | 271 76.8 50.6
10/13/19 - 1240 70.5 30.9 23 11.3 W | 260 16.0 WSW | 258 76.8 50.6
10/13/19 - 1230 71.0 30.0 22 9.5 W | 268 15.8 W | 268 76.8 50.6
10/13/19 - 1220 71.4 29.6 21 11.2 W | 263 15.6 W | 260 76.8 50.6
10/13/19 - 1210 74.7 17.8 12 6.8 SSW | 208 13.4 W | 273 76.8 50.6
Max 74.7 48.1 88 13.0 - 18.4 - 76.8 50.6
Avg 56.5 39.9 58 5.3 - 8.0 - - -
Min 41.7 17.8 12 0.1 - 1.3 - 51.7 41.3